الصفحة الرئيسية
METAR-TAF:

METAR-TAF

مطار :

مطار نانينغ الدولي

نانينغ, جمهورية الصين الشعبية

دائرة عرض: 22-49N, خط طول: 108-21E, ارتفاع: 73 متر

مراقبة الطقس الحالي

تاريخ ووقت الإصدار 44 دقيقة قبل الساعة 23:00UTC
ريح 2 عقدةمن اتجاهات متغيرة
درجة الحرارة 27°درجة مئوية
الرطوبة 84%
ضغط 1005 hPa
الرؤية 10 كم أو أكثر
الغيوم لا تقل 1500 م ولا وجود لمزنة ركامية السحاب الأسود

METAR: ZGNN 032300Z VRB01MPS CAVOK 27/24 Q1005 NOSIG

زمن: 07:44 (23:44 UTC)

توقعات

تاريخ ووقت الإصدار 2ساعات و 37 دقيقة قبل الساعة 21:07UTC
التوقعات صالحة من04 الساعة 00 UTC إلى 04 الساعة 24 UTC
ريح 6 عقدة من الجنوب/الجنوب الشرقي
الرؤية: 6000 متر
غيوم متفرقة على ارتفاع 3000 قدم
مؤقت
من 04 الساعة 05 UTC إلى 04 الساعة 11 UTC
غيوم قليلة على ارتفاع 1000 قدم
غيوم قليلة على ارتفاع 2600 قدم, مزنة ركامية.
غيوم مفككة على ارتفاع 3000 قدم
عاصفة رعدية, مطر

TAF: ZGNN 032107Z 0400/0424 16003MPS 6000 SCT030 TX33/0407Z TN26/0422Z TEMPO 0405/0411 TSRA FEW010 FEW026CB BKN030

أرصاد الطقس والتوقعات من أكثر من 4000 مطار (تقارير الطقس للمطار METAR والتنبؤ بالطقس بالمطارTAF).

المحطات المتاحة هي النقط الصفراء والحمراء على الخريطة.

حرك المؤشر فوق النقطة لمعرفة اسم المحطة.

ثم انقر لمعرفة أرصاد وتوقعات الطقس.

لتغيير الخارطة: اضغط على الأزرار الخضراء مع رمز الصليب الأسود للتكبير. على الزر الأخضر مع شرطة للتصغير، أو على الأسهم الخضراء للخرائط المجاورة.


METAR-TAF: